Airfield :
LOGIN :

Register | Disclaimer

   EN    FR    IT 

 










Legend :    VFR   Marginal VFR   IFR   Intensive IFR   Very Intensive IFR
Visi :
Ceiling :
>= 8 km
>= 3000ft
5 to 8 km
1000 to 3000 ft
1500m to 5 km
500 to 1000 ft
800 to 1500m
200 to 500 ft
< 800m
< 200 ft
Symbols :   Thunderstorms  Fog  Heavy snow  Heavy precipitations  Wind > 20 kt
SIGMETs :     Misc.  Thunderstorms  Icing  Turbulence  Mountain Waves  Volcanic Ashes







- Airport Elevation : 278 ft
- IATA code : RJK


LDRI - Rijeka

CURRENT METAR :
  • 210200Z 04004KT CAVOK 12/00 Q1023

EXPIRED METARs :
  • 210130Z 00000KT CAVOK 13/00 Q1023
  • 210100Z VRB03KT CAVOK 13/M00 Q1024
  • 210030Z 29003KT 260V020 CAVOK 14/M01 Q1024
  • 210000Z 35003KT CAVOK 13/M01 Q1024
  • 202330Z 06003KT CAVOK 13/M01 Q1024
  • 202300Z VRB02KT CAVOK 15/M02 Q1024

TAF TAF LDRI
Valid from the 21 at 00:00 until the 22 at 00:00 UTC


202325Z 2100/2200 VRB02KT CAVOK TX23/2112Z TN11/2104Z
TEMPO 2110/2116 28008KT
No reported NOTAMs for that airfield.



MET'MAP, your aeronautical weather chart ! - Copyright ORBIFLY December 2007 - Disclaimer

ORBIFLY MET'MAP TEAM :

Programming & Development : Alexandra Zaïnal
Concept & Development : Baudouin d'Aumeries
Co-Development & Prog : Marc-Olivier Méhu
Technical & hardware support : Manuel Goepfert

Contact : metmap@orbifly.com




SOURCES & CREDITS :

   NOAA